SBGL/GIG METAR and TAF weather

Enter ICAO airport designator
Station Type Date Time Source
SBGL METAR 2019/05/25 15:00 UTC NOAA

SBGL 251500Z 15007KT 9999 BKN030 26/18 Q1012


Station Type Date Time Source
SBGL Decoded METAR 2019/05/25 15:00 UTC NOAA

Galeao, Brazil (SBGL) 22-49S 043-15W 42M
May 25, 2019 - 11:00 AM EDT / 2019.05.25 1500 UTC
Wind: from the SSE (150 degrees) at 8 MPH (7 KT):0
Visibility: greater than 7 mile(s):0
Sky conditions: mostly cloudy
Temperature: 78 F (26 C)
Dew Point: 64 F (18 C)
Relative Humidity: 61%
Pressure (altimeter): 29.88 in. Hg (1012 hPa)
ob: SBGL 251500Z 15007KT 9999 BKN030 26/18 Q1012
cycle: 15

Station Type Date Time Source
SBGL TAF 2019/05/25 12:15 UTC NOAA

TAF SBGL 250900Z 2512/2618 24010KT 7000 BKN017 TN18/2608Z TX26/2617Z
BECMG 2520/2522 27005KT
BECMG 2602/2604 31005KT PROB40 2608/2611 5000 BR BKN015
BECMG 2613/2615 17010KT
RMK PGU

Example: see airport list